Time;durP1;ratioP1;P1;durP2;ratioP2;P2;SDS_P1;SDS_P2;PMS_P1;PMS_P2;Temp;Humidity;BMP_temperature;BMP_pressure;BME280_temperature;BME280_humidity;BME280_pressure;Samples;Min_cycle;Max_cycle;Signal;HPM_P1;HPM_P2
2022/12/30 00:00:43;;;;;;;12.50;3.33;;;;;;;5.57;100.00;100867.00;4828534;29;20102;-87
2022/12/30 00:03:09;;;;;;;11.53;3.77;;;;;;;5.60;100.00;100868.50;4843256;29;20040;-87
2022/12/30 00:05:34;;;;;;;11.50;3.27;;;;;;;5.56;100.00;100865.34;4828503;29;20796;-87
2022/12/30 00:08:00;;;;;;;16.67;3.73;;;;;;;5.59;100.00;100870.38;4842892;29;20486;-87
2022/12/30 00:10:25;;;;;;;13.80;3.63;;;;;;;5.53;100.00;100871.91;4844941;29;20037;-87
2022/12/30 00:35:06;;;;;;;13.17;3.43;;;;;;;5.52;100.00;100882.81;4856986;29;20047;-87
2022/12/30 00:37:32;;;;;;;15.07;3.57;;;;;;;5.51;100.00;100886.56;4856711;29;20033;-87
2022/12/30 00:39:57;;;;;;;14.30;3.73;;;;;;;5.46;100.00;100876.31;4826395;29;20086;-87
2022/12/30 00:45:07;;;;;;;13.83;3.67;;;;;;;5.42;100.00;100861.56;4861427;29;20097;-87
2022/12/30 00:47:33;;;;;;;13.70;3.93;;;;;;;5.39;100.00;100870.00;4825396;29;20124;-87
2022/12/30 00:58:11;;;;;;;13.67;3.63;;;;;;;5.34;100.00;100872.38;4861663;29;20078;-87
2022/12/30 01:00:37;;;;;;;17.43;3.87;;;;;;;5.31;100.00;100870.03;4865750;29;20033;-87
2022/12/30 01:03:02;;;;;;;14.07;4.13;;;;;;;5.29;100.00;100880.09;4862957;29;20032;-87
2022/12/30 01:05:27;;;;;;;18.37;4.40;;;;;;;5.28;100.00;100867.72;4843818;29;20985;-87
2022/12/30 01:07:53;;;;;;;12.93;3.13;;;;;;;5.31;100.00;100875.41;4853835;29;20876;-87
2022/12/30 01:10:18;;;;;;;17.47;4.43;;;;;;;5.29;100.00;100883.66;4844675;29;20116;-86
2022/12/30 01:12:43;;;;;;;13.63;4.03;;;;;;;5.24;100.00;100883.34;4846888;29;20029;-87
2022/12/30 01:15:09;;;;;;;14.40;3.80;;;;;;;5.22;100.00;100888.88;4860943;29;20029;-86
2022/12/30 01:17:35;;;;;;;15.93;3.77;;;;;;;5.22;100.00;100891.56;4820750;29;20064;-87
2022/12/30 01:20:00;;;;;;;17.60;4.57;;;;;;;5.26;100.00;100885.84;4835311;29;20026;-86
2022/12/30 01:22:26;;;;;;;15.50;4.10;;;;;;;5.18;100.00;100881.34;4847824;29;20025;-86
2022/12/30 01:24:51;;;;;;;15.57;3.90;;;;;;;5.21;100.00;100884.53;4861749;29;20055;-87
2022/12/30 01:27:17;;;;;;;14.87;3.83;;;;;;;5.23;100.00;100887.84;4844246;29;21011;-87
2022/12/30 01:29:43;;;;;;;16.83;3.90;;;;;;;5.24;100.00;100900.28;4830932;29;20026;-86
2022/12/30 01:32:15;;;;;;;15.40;4.27;;;;;;;5.30;100.00;100901.41;4857236;29;21822;-87
2022/12/30 01:34:41;;;;;;;17.00;4.30;;;;;;;5.24;100.00;100905.66;4863916;29;20040;-86
2022/12/30 01:37:07;;;;;;;13.83;3.90;;;;;;;5.21;100.00;100906.00;4860123;29;20033;-86
2022/12/30 01:39:32;;;;;;;16.17;4.10;;;;;;;5.21;100.00;100918.63;4850599;29;20041;-87
2022/12/30 01:41:58;;;;;;;17.27;5.20;;;;;;;5.23;100.00;100912.03;4862685;29;20539;-86
2022/12/30 01:44:50;;;;;;;14.87;3.83;;;;;;;5.26;100.00;100923.44;4836482;29;20064;-87
2022/12/30 01:47:31;;;;;;;16.03;4.47;;;;;;;5.24;100.00;100920.94;4849070;29;20389;-86
2022/12/30 01:50:11;;;;;;;18.20;4.27;;;;;;;5.10;100.00;100914.47;4854019;29;20071;-87
2022/12/30 01:52:40;;;;;;;19.40;4.80;;;;;;;5.08;100.00;100924.53;4857601;29;20028;-86
2022/12/30 01:55:17;;;;;;;16.43;3.67;;;;;;;5.12;100.00;100925.84;4857441;29;20054;-87
2022/12/30 01:57:48;;;;;;;14.97;4.20;;;;;;;5.10;100.00;100919.84;4852402;29;20020;-86
2022/12/30 02:00:13;;;;;;;18.63;4.47;;;;;;;5.11;100.00;100932.22;4851529;29;20029;-86
2022/12/30 02:02:40;;;;;;;15.30;4.47;;;;;;;5.05;100.00;100938.31;4829356;29;20040;-86
2022/12/30 02:05:07;;;;;;;17.40;4.13;;;;;;;5.01;100.00;100931.63;4850212;29;20087;-87
2022/12/30 02:07:38;;;;;;;18.80;4.23;;;;;;;5.01;100.00;100931.63;4849254;29;21761;-87
2022/12/30 02:10:05;;;;;;;13.97;3.73;;;;;;;5.04;100.00;100931.25;4838777;29;20697;-86
2022/12/30 02:12:30;;;;;;;15.30;3.90;;;;;;;5.07;100.00;100921.00;4867733;29;20033;-87
2022/12/30 02:14:56;;;;;;;13.77;4.10;;;;;;;5.12;100.00;100936.59;4849986;29;20495;-86
2022/12/30 02:17:21;;;;;;;16.07;4.10;;;;;;;5.18;100.00;100938.59;4845435;29;20059;-87
2022/12/30 02:20:05;;;;;;;18.20;5.80;;;;;;;5.19;100.00;100921.44;4850033;29;20934;-87
2022/12/30 02:22:49;;;;;;;17.77;5.33;;;;;;;5.13;100.00;100921.34;4852687;29;20042;-86
2022/12/30 02:25:39;;;;;;;19.90;5.23;;;;;;;5.17;100.00;100931.56;4853240;29;20302;-87
2022/12/30 02:28:05;;;;;;;15.87;5.80;;;;;;;5.07;100.00;100920.16;4864556;29;20627;-87
2022/12/30 02:30:48;;;;;;;19.70;5.77;;;;;;;5.06;100.00;100908.59;4863279;29;20040;-86
2022/12/30 02:33:49;;;;;;;20.07;5.97;;;;;;;5.12;100.00;100904.38;4853391;29;20029;-86
2022/12/30 02:36:46;;;;;;;19.53;5.73;;;;;;;5.08;100.00;100916.47;4843632;29;20120;-86
2022/12/30 02:39:30;;;;;;;18.87;5.97;;;;;;;4.96;100.00;100901.75;4833061;29;20631;-86
2022/12/30 02:45:18;;;;;;;22.50;6.77;;;;;;;4.83;100.00;100892.41;4811023;29;20043;-86
2022/12/30 02:47:51;;;;;;;19.57;6.20;;;;;;;4.86;100.00;100886.69;4789826;29;20066;-86
2022/12/30 02:53:10;;;;;;;20.07;6.43;;;;;;;4.80;100.00;100881.16;4865514;29;20144;-86
2022/12/30 02:55:35;;;;;;;19.70;6.17;;;;;;;4.79;100.00;100879.50;4845363;29;20055;-86
2022/12/30 02:58:01;;;;;;;18.40;6.50;;;;;;;4.78;100.00;100878.66;4831159;29;20037;-86
2022/12/30 03:04:15;;;;;;;17.17;3.87;;;;;;;4.75;100.00;100873.63;4860667;29;20149;-86
2022/12/30 03:07:08;;;;;;;16.55;3.97;;;;;;;4.77;100.00;100870.78;4847985;29;20028;-87
2022/12/30 03:11:12;;;;;;;16.60;4.07;;;;;;;4.75;100.00;100870.94;4846167;29;20147;-86
2022/12/30 03:12:39;;;;;;;19.07;4.47;;;;;;;4.68;100.00;100867.28;4866865;29;20085;-87
2022/12/30 03:15:12;;;;;;;15.57;4.03;;;;;;;4.69;100.00;100868.94;4846648;29;20082;-87
2022/12/30 03:17:39;;;;;;;15.87;4.03;;;;;;;4.63;100.00;100880.38;4842688;29;20038;-86
2022/12/30 03:20:13;;;;;;;17.53;3.87;;;;;;;4.63;100.00;100866.97;4847906;29;20037;-87
2022/12/30 03:28:15;;;;;;;17.77;4.57;;;;;;;4.62;100.00;100867.97;4864966;29;20102;-86
2022/12/30 03:30:48;;;;;;;18.50;4.17;;;;;;;4.56;100.00;100851.53;4867060;29;20037;-86
2022/12/30 03:33:13;;;;;;;15.27;3.67;;;;;;;4.59;100.00;100871.00;4847332;29;20639;-87
2022/12/30 03:35:51;;;;;;;16.00;4.17;;;;;;;4.62;100.00;100871.47;4832478;29;20040;-87
2022/12/30 03:38:21;;;;;;;15.13;4.00;;;;;;;4.54;100.00;100864.31;4835978;29;20029;-87
2022/12/30 03:40:49;;;;;;;18.53;4.87;;;;;;;4.50;100.00;100871.03;4869824;29;20036;-86
2022/12/30 03:43:15;;;;;;;17.03;4.37;;;;;;;4.48;100.00;100862.28;4845416;29;20025;-86
2022/12/30 03:45:41;;;;;;;17.87;4.17;;;;;;;4.45;100.00;100868.00;4832995;29;20029;-86
2022/12/30 03:48:06;;;;;;;17.70;4.87;;;;;;;4.40;100.00;100855.09;4811147;29;20124;-86
2022/12/30 03:50:32;;;;;;;18.93;4.80;;;;;;;4.46;100.00;100867.00;4859905;29;20870;-86
2022/12/30 03:52:57;;;;;;;19.63;4.13;;;;;;;4.42;100.00;100863.00;4846993;29;20037;-86
2022/12/30 03:55:23;;;;;;;18.43;4.30;;;;;;;4.38;100.00;100867.84;4861484;29;20062;-86
2022/12/30 03:57:48;;;;;;;18.63;4.40;;;;;;;4.42;100.00;100872.88;4850975;29;20041;-86
2022/12/30 04:00:13;;;;;;;16.43;4.40;;;;;;;4.45;100.00;100865.31;4864940;29;20033;-86
2022/12/30 04:02:39;;;;;;;17.77;3.77;;;;;;;4.44;100.00;100866.31;4866317;29;20478;-86
2022/12/30 04:05:06;;;;;;;16.83;4.80;;;;;;;4.41;100.00;100866.69;4863472;29;20470;-86
2022/12/30 04:07:32;;;;;;;19.27;4.60;;;;;;;4.40;100.00;100873.03;4861419;29;20053;-87
2022/12/30 04:09:57;;;;;;;20.43;4.53;;;;;;;4.42;100.00;100865.69;4842680;29;21952;-87
2022/12/30 04:12:23;;;;;;;19.40;4.40;;;;;;;4.37;100.00;100858.13;4835454;29;20113;-87
2022/12/30 04:14:48;;;;;;;21.07;5.23;;;;;;;4.32;100.00;100868.53;4865372;29;20033;-87
2022/12/30 04:17:13;;;;;;;19.40;4.50;;;;;;;4.27;100.00;100864.69;4861300;29;20034;-87
2022/12/30 04:19:39;;;;;;;18.73;4.43;;;;;;;4.29;100.00;100873.41;4848831;29;20410;-87
2022/12/30 04:22:04;;;;;;;19.93;5.07;;;;;;;4.25;100.00;100866.72;4831228;29;20045;-88
2022/12/30 04:24:29;;;;;;;20.07;4.37;;;;;;;4.34;100.00;100873.75;4818532;29;20037;-87
2022/12/30 04:26:55;;;;;;;19.47;5.30;;;;;;;4.22;100.00;100879.44;4847582;29;20040;-87
2022/12/30 04:29:20;;;;;;;19.57;5.57;;;;;;;4.18;100.00;100878.09;4850239;29;20548;-88
2022/12/30 04:31:46;;;;;;;20.03;5.20;;;;;;;4.14;100.00;100883.97;4844877;29;20030;-87
2022/12/30 04:34:14;;;;;;;17.00;5.50;;;;;;;4.21;100.00;100885.81;4844140;29;20069;-87
2022/12/30 04:36:40;;;;;;;19.90;6.07;;;;;;;4.19;100.00;100885.16;4842274;29;20035;-87
2022/12/30 04:39:05;;;;;;;19.27;5.20;;;;;;;4.17;100.00;100873.75;4837393;29;20030;-87
2022/12/30 04:41:31;;;;;;;19.10;4.57;;;;;;;4.17;100.00;100878.28;4861930;29;20528;-87
2022/12/30 04:43:56;;;;;;;20.43;5.17;;;;;;;4.18;100.00;100869.22;4849548;29;20081;-87
2022/12/30 04:46:21;;;;;;;16.07;4.80;;;;;;;4.17;100.00;100868.38;4820627;29;20049;-87
2022/12/30 04:48:47;;;;;;;18.17;4.23;;;;;;;4.17;100.00;100875.59;4845270;29;20462;-87
2022/12/30 04:51:12;;;;;;;16.33;4.20;;;;;;;4.23;100.00;100867.72;4839383;29;20025;-87
2022/12/30 04:53:37;;;;;;;16.60;4.73;;;;;;;4.18;100.00;100867.38;4829372;29;21646;-87
2022/12/30 04:56:03;;;;;;;17.03;4.57;;;;;;;4.17;100.00;100854.97;4826132;29;20037;-87
2022/12/30 04:58:28;;;;;;;20.40;5.07;;;;;;;4.20;100.00;100857.34;4805124;29;20117;-87
2022/12/30 05:00:54;;;;;;;17.93;4.20;;;;;;;4.17;100.00;100864.88;4817904;29;20117;-87
2022/12/30 05:03:19;;;;;;;17.13;4.40;;;;;;;4.18;100.00;100851.28;4829375;29;20393;-86
2022/12/30 05:05:45;;;;;;;21.23;5.13;;;;;;;4.20;100.00;100851.97;4811108;29;20041;-87
2022/12/30 05:08:11;;;;;;;17.50;4.43;;;;;;;4.25;100.00;100856.81;4827472;29;20040;-86
2022/12/30 05:10:38;;;;;;;19.87;5.23;;;;;;;4.26;100.00;100868.38;4818241;29;20030;-86
2022/12/30 05:13:04;;;;;;;21.20;5.47;;;;;;;4.19;100.00;100865.56;4823420;29;20025;-86
2022/12/30 05:15:29;;;;;;;21.03;4.83;;;;;;;4.16;100.00;100858.69;4838117;29;20042;-86
2022/12/30 05:17:55;;;;;;;19.40;4.80;;;;;;;4.14;100.00;100854.50;4827559;29;20030;-86
2022/12/30 05:20:20;;;;;;;19.83;4.83;;;;;;;4.13;100.00;100855.47;4835609;29;20034;-86
2022/12/30 05:22:45;;;;;;;18.97;4.93;;;;;;;4.10;100.00;100848.63;4824111;29;20116;-86
2022/12/30 05:27:55;;;;;;;20.15;4.40;;;;;;;4.02;100.00;100851.31;4838984;29;20117;-86
2022/12/30 05:30:21;;;;;;;23.43;5.63;;;;;;;3.92;100.00;100855.97;4838904;29;20128;-86
2022/12/30 05:32:47;;;;;;;21.20;4.60;;;;;;;3.92;100.00;100859.53;4829765;29;20417;-86
2022/12/30 05:35:12;;;;;;;19.33;4.80;;;;;;;3.95;100.00;100861.88;4796969;29;20049;-86
2022/12/30 05:37:38;;;;;;;22.53;5.83;;;;;;;3.90;100.00;100856.16;4825385;29;20034;-86
2022/12/30 05:40:04;;;;;;;17.50;5.27;;;;;;;3.84;100.00;100852.31;4830468;29;20025;-86
2022/12/30 05:42:29;;;;;;;17.70;4.57;;;;;;;3.86;100.00;100849.47;4835219;29;20458;-86
2022/12/30 05:44:55;;;;;;;18.83;4.70;;;;;;;3.84;100.00;100851.47;4825457;29;20049;-87
2022/12/30 05:47:21;;;;;;;19.47;5.27;;;;;;;3.77;100.00;100859.34;4844309;29;21093;-87
2022/12/30 05:49:46;;;;;;;22.20;4.80;;;;;;;3.78;100.00;100858.34;4829598;29;20034;-86
2022/12/30 05:52:11;;;;;;;17.87;4.90;;;;;;;3.78;100.00;100854.81;4830801;29;20106;-86
2022/12/30 05:54:37;;;;;;;22.53;5.13;;;;;;;3.76;100.00;100862.19;4838617;29;20064;-86
2022/12/30 05:57:02;;;;;;;19.10;4.60;;;;;;;3.73;100.00;100839.25;4851882;29;20521;-86
2022/12/30 05:59:28;;;;;;;16.70;4.47;;;;;;;3.71;100.00;100858.19;4873062;29;20153;-87
2022/12/30 06:01:53;;;;;;;19.50;5.20;;;;;;;3.69;100.00;100854.00;4841536;29;20982;-86
2022/12/30 06:04:19;;;;;;;19.43;4.90;;;;;;;3.72;100.00;100845.59;4866703;29;20839;-86
2022/12/30 06:06:44;;;;;;;17.53;5.23;;;;;;;3.71;100.00;100850.13;4826915;29;20037;-87
2022/12/30 06:09:10;;;;;;;18.80;4.97;;;;;;;3.68;100.00;100839.72;4849565;29;20072;-87
2022/12/30 06:11:35;;;;;;;20.93;4.93;;;;;;;3.72;100.00;100849.13;4857113;29;20049;-87
2022/12/30 06:14:01;;;;;;;20.60;4.80;;;;;;;3.73;100.00;100836.56;4855785;29;20029;-88
2022/12/30 06:16:26;;;;;;;20.17;5.47;;;;;;;3.74;100.00;100835.56;4858501;29;20022;-87
2022/12/30 06:18:52;;;;;;;16.97;4.73;;;;;;;3.71;100.00;100817.13;4849532;29;20494;-87
2022/12/30 06:21:17;;;;;;;18.37;4.77;;;;;;;3.76;100.00;100820.16;4811917;29;20038;-87
2022/12/30 06:23:43;;;;;;;18.00;4.47;;;;;;;3.80;100.00;100821.50;4864411;29;20053;-87
2022/12/30 06:26:08;;;;;;;21.77;5.17;;;;;;;3.79;100.00;100827.03;4821603;29;20034;-87
2022/12/30 06:28:34;;;;;;;17.53;4.70;;;;;;;3.82;100.00;100822.16;4829775;29;20026;-87
2022/12/30 06:30:59;;;;;;;19.50;5.03;;;;;;;3.83;100.00;100820.31;4831142;29;20093;-87
2022/12/30 06:33:25;;;;;;;20.73;5.13;;;;;;;3.84;100.00;100822.81;4811236;29;20118;-87
2022/12/30 06:35:51;;;;;;;19.67;4.70;;;;;;;3.80;100.00;100816.13;4862803;29;20061;-87
2022/12/30 06:38:17;;;;;;;22.03;5.33;;;;;;;3.86;100.00;100809.25;4858170;29;20044;-88
2022/12/30 06:40:44;;;;;;;20.30;5.37;;;;;;;3.88;100.00;100821.47;4860529;29;20025;-87
2022/12/30 06:43:09;;;;;;;21.97;5.27;;;;;;;3.86;100.00;100817.28;4848289;29;20033;-87
2022/12/30 06:45:35;;;;;;;18.57;5.30;;;;;;;3.96;100.00;100817.97;4867376;29;20040;-86
2022/12/30 06:48:01;;;;;;;18.97;5.10;;;;;;;3.91;100.00;100800.72;4863531;29;20513;-86
2022/12/30 06:50:26;;;;;;;19.73;5.30;;;;;;;3.92;100.00;100797.88;4842012;29;20178;-86
2022/12/30 06:52:52;;;;;;;19.40;4.67;;;;;;;3.91;100.00;100781.97;4847492;29;20024;-86
2022/12/30 06:55:17;;;;;;;19.20;4.53;;;;;;;3.88;100.00;100783.13;4862497;29;20064;-86
2022/12/30 06:57:42;;;;;;;21.73;5.43;;;;;;;3.86;100.00;100782.44;4849750;29;20057;-87
2022/12/30 07:00:09;;;;;;;17.67;4.73;;;;;;;3.88;100.00;100767.88;4863985;29;20037;-86
2022/12/30 07:02:34;;;;;;;19.57;5.10;;;;;;;3.87;100.00;100771.56;4865186;29;20680;-86
2022/12/30 07:05:00;;;;;;;20.10;5.03;;;;;;;3.92;100.00;100762.16;4810139;29;20069;-86
2022/12/30 07:07:25;;;;;;;19.03;5.47;;;;;;;3.88;100.00;100754.47;4861474;29;20231;-87
2022/12/30 07:09:51;;;;;;;17.87;4.80;;;;;;;3.90;100.00;100751.63;4850980;29;20062;-87
2022/12/30 07:12:17;;;;;;;20.80;5.17;;;;;;;3.88;100.00;100741.06;4825693;29;20040;-87
2022/12/30 07:14:43;;;;;;;16.97;5.13;;;;;;;3.97;100.00;100739.22;4846291;29;20033;-87
2022/12/30 07:17:09;;;;;;;23.27;5.53;;;;;;;3.95;100.00;100737.72;4863866;29;20040;-87
2022/12/30 07:19:34;;;;;;;16.70;4.50;;;;;;;3.97;100.00;100731.19;4849835;29;20068;-87
2022/12/30 07:22:00;;;;;;;17.17;4.63;;;;;;;4.06;100.00;100735.50;4841858;29;20037;-86
2022/12/30 07:24:25;;;;;;;19.47;4.87;;;;;;;4.00;100.00;100746.91;4830905;29;20030;-86
2022/12/30 07:26:50;;;;;;;15.20;4.83;;;;;;;4.06;100.00;100746.22;4812439;29;20025;-86
2022/12/30 07:29:16;;;;;;;20.70;5.10;;;;;;;4.06;100.00;100745.38;4852073;29;20025;-87
2022/12/30 07:31:41;;;;;;;18.27;4.67;;;;;;;4.09;100.00;100745.03;4854014;29;20100;-86
2022/12/30 07:34:07;;;;;;;18.20;5.53;;;;;;;4.13;100.00;100756.28;4849502;29;20057;-87
2022/12/30 07:36:32;;;;;;;17.10;5.43;;;;;;;4.15;100.00;100739.00;4848311;29;20500;-86
2022/12/30 07:38:59;;;;;;;15.93;4.47;;;;;;;4.07;100.00;100720.25;4851603;29;20469;-86
2022/12/30 07:41:27;;;;;;;18.03;5.10;;;;;;;4.11;100.00;100720.72;4843732;29;20506;-87
2022/12/30 07:43:53;;;;;;;16.60;4.80;;;;;;;4.09;100.00;100712.84;4866348;29;20070;-87
2022/12/30 07:46:19;;;;;;;16.47;5.10;;;;;;;4.11;100.00;100702.81;4858391;29;20199;-87
2022/12/30 07:48:45;;;;;;;20.10;5.77;;;;;;;4.08;100.00;100703.16;4855206;29;20018;-87
2022/12/30 07:51:15;;;;;;;13.80;4.90;;;;;;;4.15;100.00;100700.63;4848346;29;20049;-87
2022/12/30 07:53:41;;;;;;;19.10;5.23;;;;;;;4.15;100.00;100693.41;4862108;29;20390;-87
2022/12/30 07:56:10;;;;;;;14.10;4.63;;;;;;;4.11;100.00;100686.72;4846808;29;20029;-87
2022/12/30 07:58:35;;;;;;;17.27;4.70;;;;;;;4.16;100.00;100680.84;4863962;29;20023;-87
2022/12/30 08:01:06;;;;;;;17.80;5.00;;;;;;;4.18;100.00;100682.34;4850464;29;20028;-87
2022/12/30 08:03:32;;;;;;;19.10;5.20;;;;;;;4.13;100.00;100671.28;4843269;29;20114;-87
2022/12/30 08:06:06;;;;;;;15.70;4.73;;;;;;;4.17;100.00;100664.56;4817096;29;21910;-87
2022/12/30 08:08:32;;;;;;;16.75;4.35;;;;;;;4.20;100.00;100661.56;4844202;29;20025;-87
2022/12/30 08:10:59;;;;;;;14.53;4.70;;;;;;;4.23;100.00;100665.72;4864366;29;20048;-87
2022/12/30 08:13:24;;;;;;;16.17;4.70;;;;;;;4.22;100.00;100659.53;4861512;29;20033;-87
2022/12/30 08:15:50;;;;;;;16.90;4.63;;;;;;;4.26;100.00;100648.44;4846783;29;20041;-87
2022/12/30 08:18:15;;;;;;;15.43;4.93;;;;;;;4.35;100.00;100658.13;4846573;29;20045;-87
2022/12/30 08:20:41;;;;;;;14.43;5.00;;;;;;;4.42;100.00;100659.09;4867182;29;20393;-87
2022/12/30 08:23:06;;;;;;;13.97;4.83;;;;;;;4.43;100.00;100655.38;4849957;29;20077;-87
2022/12/30 08:25:32;;;;;;;14.10;4.27;;;;;;;4.49;100.00;100659.25;4867972;29;20045;-87
2022/12/30 08:27:57;;;;;;;18.00;4.77;;;;;;;4.57;100.00;100646.59;4866081;29;20136;-87
2022/12/30 08:30:23;;;;;;;17.57;5.10;;;;;;;4.63;100.00;100649.59;4865094;29;20154;-87
2022/12/30 08:32:51;;;;;;;16.00;4.67;;;;;;;4.65;100.00;100636.81;4855131;29;20025;-87
2022/12/30 08:35:17;;;;;;;13.67;4.30;;;;;;;4.76;100.00;100633.75;4849548;29;20081;-87
2022/12/30 08:37:43;;;;;;;11.77;4.23;;;;;;;4.79;100.00;100636.06;4845848;29;20081;-87
2022/12/30 08:40:09;;;;;;;16.03;4.43;;;;;;;4.85;100.00;100624.59;4827804;29;20038;-86
2022/12/30 08:42:35;;;;;;;13.87;4.20;;;;;;;4.92;100.00;100624.69;4848963;29;20037;-86
2022/12/30 08:45:01;;;;;;;16.40;4.33;;;;;;;4.98;100.00;100612.44;4864443;29;20051;-86
2022/12/30 08:47:26;;;;;;;11.90;3.67;;;;;;;5.08;100.00;100595.03;4835861;29;20037;-86
2022/12/30 08:49:51;;;;;;;14.03;4.33;;;;;;;5.16;100.00;100599.50;4868783;29;20040;-86
2022/12/30 08:52:17;;;;;;;14.37;4.13;;;;;;;5.21;100.00;100598.97;4847643;29;20545;-86
2022/12/30 08:54:42;;;;;;;13.80;3.97;;;;;;;5.30;100.00;100597.03;4833443;29;20945;-86
2022/12/30 08:57:09;;;;;;;11.13;3.50;;;;;;;5.38;100.00;100591.56;4827505;29;20090;-86
2022/12/30 08:59:34;;;;;;;12.93;4.40;;;;;;;5.47;100.00;100584.25;4842039;29;20478;-86
2022/12/30 09:01:59;;;;;;;12.03;3.83;;;;;;;5.55;100.00;100590.38;4833779;29;20054;-87
2022/12/30 09:04:25;;;;;;;10.73;3.50;;;;;;;5.65;100.00;100576.66;4827998;29;20124;-86
2022/12/30 09:06:50;;;;;;;11.80;3.30;;;;;;;5.75;100.00;100579.03;4829455;29;20037;-87
2022/12/30 09:09:16;;;;;;;11.13;3.40;;;;;;;5.84;100.00;100577.09;4817039;29;20102;-86
2022/12/30 09:11:43;;;;;;;7.90;2.90;;;;;;;5.88;100.00;100579.22;4833355;29;20082;-86
2022/12/30 09:14:10;;;;;;;12.57;3.07;;;;;;;5.95;100.00;100584.69;4826719;29;20037;-86
2022/12/30 09:16:35;;;;;;;9.13;2.83;;;;;;;6.06;100.00;100569.94;4828668;29;20038;-86
2022/12/30 09:19:01;;;;;;;8.63;2.80;;;;;;;6.09;100.00;100572.25;4842039;29;20044;-86
2022/12/30 09:21:27;;;;;;;6.33;2.53;;;;;;;6.17;100.00;100572.13;4831650;29;20068;-86
2022/12/30 09:23:53;;;;;;;8.17;2.53;;;;;;;6.19;100.00;100548.59;4839100;29;20041;-86
2022/12/30 09:26:21;;;;;;;7.97;3.13;;;;;;;6.19;100.00;100553.97;4833555;29;20033;-86
2022/12/30 09:28:47;;;;;;;9.23;2.60;;;;;;;6.23;100.00;100544.50;4847109;29;20472;-86
2022/12/30 09:31:13;;;;;;;8.00;2.80;;;;;;;6.35;100.00;100554.75;4845598;29;20070;-88
2022/12/30 09:33:38;;;;;;;9.80;3.00;;;;;;;6.35;100.00;100539.44;4845541;29;20490;-88
2022/12/30 09:36:05;;;;;;;7.90;2.90;;;;;;;6.42;100.00;100553.78;4822735;29;20045;-87
2022/12/30 09:38:31;;;;;;;8.23;2.80;;;;;;;6.47;100.00;100547.81;4836438;29;20397;-86
2022/12/30 09:44:35;;;;;;;9.53;2.40;;;;;;;6.56;100.00;100548.53;4841639;29;20091;-86
2022/12/30 09:47:03;;;;;;;6.23;2.40;;;;;;;6.54;100.00;100546.06;4834176;29;20092;-86
2022/12/30 09:49:41;;;;;;;8.00;2.60;;;;;;;6.60;100.00;100541.75;4838053;29;20069;-86
2022/12/30 09:52:09;;;;;;;7.43;2.50;;;;;;;6.67;100.00;100533.72;4826995;29;20409;-86
2022/12/30 09:54:39;;;;;;;7.43;2.67;;;;;;;6.63;100.00;100533.28;4830014;29;20054;-85
2022/12/30 09:59:56;;;;;;;7.63;2.70;;;;;;;6.64;100.00;100507.22;4860285;29;20566;-86
2022/12/30 10:02:27;;;;;;;8.23;2.87;;;;;;;6.64;100.00;100509.91;4863609;29;20033;-86
2022/12/30 10:04:54;;;;;;;8.67;2.60;;;;;;;6.62;100.00;100499.31;4862484;29;20604;-86
2022/12/30 10:07:22;;;;;;;7.70;2.63;;;;;;;6.63;100.00;100487.50;4824149;29;20038;-86
2022/12/30 10:10:05;;;;;;;10.23;2.80;;;;;;;6.72;100.00;100483.66;4853751;29;20042;-86
2022/12/30 10:12:46;;;;;;;6.93;2.80;;;;;;;6.67;100.00;100479.88;4854888;29;20040;-86
2022/12/30 10:15:31;;;;;;;8.83;2.90;;;;;;;6.78;100.00;100478.53;4846433;29;20510;-86
2022/12/30 10:18:14;;;;;;;9.57;2.47;;;;;;;6.76;100.00;100467.94;4858569;29;20021;-86
2022/12/30 10:21:07;;;;;;;11.07;2.47;;;;;;;6.79;100.00;100462.16;4860666;29;20049;-86
2022/12/30 10:23:44;;;;;;;7.83;2.50;;;;;;;6.74;100.00;100448.44;4843040;29;20097;-86
2022/12/30 10:26:16;;;;;;;9.87;2.73;;;;;;;6.80;100.00;100445.00;4858717;29;20038;-86
2022/12/30 10:28:47;;;;;;;7.57;2.70;;;;;;;6.76;100.00;100435.63;4862102;29;20033;-86
2022/12/30 10:31:20;;;;;;;4.73;2.17;;;;;;;6.82;100.00;100418.69;4864857;29;20049;-86
2022/12/30 10:33:48;;;;;;;6.90;2.47;;;;;;;6.81;100.00;100417.00;4846530;29;20029;-88
2022/12/30 10:36:21;;;;;;;7.00;2.40;;;;;;;6.88;100.00;100417.06;4848310;29;20525;-88
2022/12/30 10:38:47;;;;;;;7.45;2.10;;;;;;;6.92;100.00;100416.47;4849079;29;20040;-88
2022/12/30 10:41:29;;;;;;;12.90;2.97;;;;;;;6.92;100.00;100394.94;4854765;29;20045;-88
2022/12/30 10:44:16;;;;;;;7.50;2.40;;;;;;;7.00;100.00;100391.22;4849975;29;20037;-88
2022/12/30 10:47:12;;;;;;;10.70;2.80;;;;;;;7.06;100.00;100376.97;4860122;29;20061;-88
2022/12/30 10:49:56;;;;;;;8.23;2.83;;;;;;;7.07;100.00;100367.00;4860536;29;20120;-88
2022/12/30 10:52:22;;;;;;;6.43;2.50;;;;;;;7.17;100.00;100358.56;4861684;29;20037;-88
2022/12/30 10:54:48;;;;;;;9.32;3.20;;;;;;;7.13;100.00;100350.06;4773470;29;1420568;-88
2022/12/30 10:57:17;;;;;;;9.77;2.93;;;;;;;7.23;100.00;100338.91;4833280;29;20046;-88
2022/12/30 10:59:43;;;;;;;9.73;2.70;;;;;;;7.26;100.00;100328.56;4850590;29;20098;-88
2022/12/30 11:02:20;;;;;;;11.47;2.90;;;;;;;7.28;100.00;100320.25;4833072;29;20065;-88
2022/12/30 11:04:46;;;;;;;9.23;2.37;;;;;;;7.33;100.00;100309.72;4851100;29;20030;-88
2022/12/30 11:07:14;;;;;;;7.77;2.40;;;;;;;7.29;100.00;100294.97;4817678;29;20077;-86
2022/12/30 11:09:40;;;;;;;11.53;2.73;;;;;;;7.37;100.00;100300.19;4853402;29;20033;-86
2022/12/30 11:15:12;;;;;;;7.57;2.63;;;;;;;7.43;100.00;100276.97;4852256;29;20040;-86
2022/12/30 11:17:57;;;;;;;8.43;2.90;;;;;;;7.43;100.00;100264.31;4835814;29;20033;-86
2022/12/30 11:20:35;;;;;;;8.60;2.80;;;;;;;7.40;100.00;100253.94;4835860;29;20121;-86
2022/12/30 11:23:06;;;;;;;9.17;2.83;;;;;;;7.47;100.00;100263.91;4845361;29;20029;-87
2022/12/30 11:25:44;;;;;;;8.67;2.80;;;;;;;7.46;100.00;100243.38;4833707;29;20120;-86
2022/12/30 11:28:18;;;;;;;10.87;2.60;;;;;;;7.51;100.00;100249.00;4834751;29;20034;-87
2022/12/30 11:30:58;;;;;;;10.63;3.17;;;;;;;7.46;100.00;100230.72;4842197;29;20030;-87
2022/12/30 11:33:32;;;;;;;9.20;2.43;;;;;;;7.47;100.00;100218.91;4850208;29;20040;-86
2022/12/30 11:36:26;;;;;;;8.05;2.60;;;;;;;7.51;100.00;100212.06;4836124;29;20406;-85
2022/12/30 11:38:51;;;;;;;6.90;2.37;;;;;;;7.46;100.00;100209.16;4849476;29;20123;-88
2022/12/30 11:41:17;;;;;;;9.47;2.50;;;;;;;7.50;100.00;100193.41;4819953;29;20070;-87
2022/12/30 11:43:43;;;;;;;8.03;2.63;;;;;;;7.50;100.00;100172.66;4855556;29;20064;-87
2022/12/30 11:46:11;;;;;;;9.97;2.80;;;;;;;7.51;100.00;100174.31;4824441;29;20064;-87
2022/12/30 11:48:56;;;;;;;8.23;2.40;;;;;;;7.55;100.00;100172.06;4820415;29;20118;-87
2022/12/30 11:51:40;;;;;;;10.27;3.17;;;;;;;7.57;100.00;100156.50;4853758;29;20090;-86
2022/12/30 11:54:16;;;;;;;9.77;2.60;;;;;;;7.58;100.00;100164.38;4849449;29;20048;-86
2022/12/30 11:57:20;;;;;;;8.03;2.30;;;;;;;7.71;100.00;100146.50;4867984;29;20377;-87
2022/12/30 11:59:48;;;;;;;8.53;2.60;;;;;;;7.76;100.00;100146.72;4838204;29;20120;-87
2022/12/30 12:02:33;;;;;;;10.87;2.73;;;;;;;7.83;100.00;100125.94;4863075;29;20088;-86
2022/12/30 12:04:59;;;;;;;6.27;2.30;;;;;;;7.87;99.80;100113.69;4863747;29;20124;-87
2022/12/30 12:07:46;;;;;;;9.03;2.73;;;;;;;7.93;99.88;100107.47;4843778;29;20022;-87
2022/12/30 12:10:11;;;;;;;9.17;3.00;;;;;;;7.99;99.11;100094.97;4841416;29;20068;-87
2022/12/30 12:12:57;;;;;;;10.47;2.80;;;;;;;8.03;99.37;100079.22;4867016;29;20053;-86
2022/12/30 12:15:30;;;;;;;8.57;2.90;;;;;;;8.02;98.54;100078.34;4867652;29;20128;-87
2022/12/30 12:18:09;;;;;;;10.90;3.10;;;;;;;8.05;98.82;100066.31;4847912;29;20100;-86
2022/12/30 12:20:41;;;;;;;8.40;2.63;;;;;;;8.15;97.93;100063.19;4865679;29;20033;-86
2022/12/30 12:23:42;;;;;;;8.67;2.60;;;;;;;8.17;98.31;100059.19;4838925;29;20037;-86
2022/12/30 12:26:16;;;;;;;8.77;2.40;;;;;;;8.18;98.58;100049.25;4804125;29;20051;-86
2022/12/30 12:28:44;;;;;;;12.85;2.63;;;;;;;8.26;98.09;100052.50;4860293;29;20046;-86